ADDS METAR Data INFO
IDs: Format: Raw Decoded Include TAF

Data at: 0802 UTC 23 Jul 2018

KPDT 230753Z AUTO 13009KT 10SM CLR 17/04 A3011 RMK AO2 SLP179 T01720044 403280106
KPDT 230653Z AUTO 15006KT 10SM CLR 20/04 A3011 RMK AO2 SLP181 T02000044
KPDT 230553Z AUTO 13005KT 10SM CLR 22/04 A3012 RMK AO2 SLP182 T02220039 10328 20200 53010
KPDT 230453Z AUTO 17006KT 10SM CLR 21/03 A3011 RMK AO2 SLP180 T02060033
KPDT 230353Z AUTO 02008KT 10SM CLR 22/04 A3009 RMK AO2 SLP175 T02220039
KPDT 230253Z 01009KT 10SM CLR 29/04 A3009 RMK AO2 SLP173 T02890044 56006
KPDT 230153Z 02007KT 10SM CLR 32/02 A3009 RMK AO2 SLP173 T03170022
KPDT 230053Z 04006KT 10SM CLR 32/02 A3009 RMK AO2 SLP176 T03170017
KPDT 222353Z 34006KT 10SM CLR 32/02 A3011 RMK AO2 SLP180 T03170022 10328 20256 56015
KPDT 222253Z VRB06KT 10SM CLR 32/01 A3012 RMK AO2 SLP185 T03170011
KPDT 222153Z 00000KT 10SM CLR 30/02 A3014 RMK AO2 SLP191 T03000022
KPDT 222053Z 04008G16KT 10SM CLR 31/03 A3015 RMK AO2 SLP196 T03110028 58016
KPDT 221953Z VRB03KT 10SM CLR 28/03 A3017 RMK AO2 SLP201 T02830033
KPDT 221853Z VRB06KT 10SM CLR 27/05 A3019 RMK AO2 SLP208 T02720050
KPDT 221753Z 32007KT 10SM CLR 26/06 A3020 RMK AO2 SLP213 T02560056 10256 20106 51001
KPDT 221653Z 10SM CLR 24/06 A3020 RMK AO2 SLP213 T02390056
KPDT 221553Z 00000KT 10SM CLR 21/04 A3020 RMK AO2 SLP213 T02110039
KPDT 221453Z 17004KT 10SM CLR 18/02 A3020 RMK AO2 SLP212 T01780022 51010
KPDT 221353Z 15006KT 10SM CLR 14/01 A3020 RMK AO2 SLP212 T01440011
KPDT 221253Z 14006KT 10SM CLR 11/00 A3018 RMK AO2 SLP208 T01110000
KPDT 221153Z AUTO 17007KT 10SM CLR 12/00 A3017 RMK AO2 SLP203 T01170000 10178 20106 53013
KPDT 221053Z AUTO 15003KT 10SM CLR 11/M01 A3015 RMK AO2 SLP198 T01111006
KPDT 220953Z AUTO 08007KT 10SM CLR 13/M01 A3014 RMK AO2 SLP191 T01281006
KPDT 220853Z AUTO 10005KT 10SM CLR 13/M01 A3013 RMK AO2 SLP188 T01281006 51010
KPDT 220753Z AUTO 07003KT 10SM CLR 15/M01 A3012 RMK AO2 SLP186 T01501006 402890094
KPDT 220653Z AUTO 11008KT 10SM CLR 16/M01 A3011 RMK AO2 SLP182 T01611006
KPDT 220553Z AUTO 09008KT 10SM CLR 17/M01 A3010 RMK AO2 SLP179 T01721011 10289 20172 51017
KPDT 220453Z AUTO 06010KT 10SM CLR 18/M02 A3009 RMK AO2 SLP175 T01781017
KPDT 220353Z AUTO 03009KT 10SM CLR 19/M02 A3006 RMK AO2 SLP168 T01941022
KPDT 220253Z 31008KT 10SM CLR 26/M02 A3004 RMK AO2 SLP160 T02561017 53004
KPDT 220153Z 30010KT 10SM CLR 28/M02 A3004 RMK AO2 SLP158 T02781017
KPDT 220053Z 30014G19KT 10SM CLR 28/M03 A3003 RMK AO2 SLP158 T02831028
KPDT 212353Z 33010G17KT 10SM CLR 28/00 A3003 RMK AO2 SLP157 T02830000 10289 20222 58000
KPDT 212253Z 33005KT 10SM CLR 28/01 A3003 RMK AO2 SLP157 T02780011
KPDT 212153Z 29009KT 10SM CLR 28/03 A3003 RMK AO2 SLP158 T02830028
KPDT 212053Z 29008KT 10SM CLR 28/03 A3003 RMK AO2 SLP155 T02780028 56007